Oysterville, Washington
Current Conditions -  °F | °C
As of 5:55 AM on Friday 31 Oct 2014 (Local Time) from KAST Reporting Station
Light Rain Light Rain  
Wind Chill: 51°   Ceiling: 6000
Heat Index: 51°   Visibility: 6mi
Dew Point: 50°   Wind: 3mph
Humidity: 96%   Direction: 170°S
Pressure: 29.74"   Gusts: NA
Location:  46.55°N, 124.03°W
Report Text: KAST 311255Z AUTO 17003KT 6SM -RA BR FEW050 OVC060 11/10 A2974 RMK AO2 SLP070 P0006 T01060100
Loading
Personal Weather Stations






























Interactive Weather Map
Tropical Storm Tracking
New forecast layout! Learn more

10-Day Weather Forecast

Advertisements
Track Severe Weather on mobile